Weather History for Pampa, TX

Change the Weather History Date:

Friday, October 7, 2011

  Actual Average Record
Temperature  
Mean Temperature 71 °F -  
Max Temperature 80 °F 73 °F 91 °F (1979)
Min Temperature 62 °F 47 °F 32 °F (2012)
Cooling Degree Days 6    
Growing Degree Days 21 (Base 50)    
Moisture  
Dew Point 58 °F    
Average Humidity 67    
Maximum Humidity 94    
Minimum Humidity 44    
Precipitation  
Precipitation 0.00 in - - ()
Sea Level Pressure  
Sea Level Pressure 29.89 in    
Wind  
Wind Speed 22 mph (SSE)    
Max Wind Speed 26 mph    
Max Gust Speed 34 mph    
Visibility 10 miles    
Events      
Averages and records for this station are not official NWS values.
T = Trace of Precipitation, MM = Missing Value Source: NWS Daily Summary

Daily Weather History Graph

Daily Weather History Graph

Search for Another Location

Airport:

Trip Planner

Search our weather history database for the weather conditions in past years. The results will help you decide how hot, cold, wet, or windy it might be!

Date:

Astronomy

Oct. 07, 2011 Rise Set
Actual Time 7:43 AM CDT 7:19 PM CDT
Civil Twilight 7:18 AM CDT 7:45 PM CDT
Nautical Twilight 6:48 AM CDT 8:14 PM CDT
Astronomical Twilight 6:18 AM CDT 8:44 PM CDT
Moon 4:57 PM CDT (10/7) 3:42 AM CDT (10/7)
Length of Visible Light 12h 27m
Length of Day
11h 36m
Waxing Gibbous, 83% of the Moon is Illuminated
Oct 7
Waxing Gibbous
Oct 11
Full
Oct 19
Last Quarter
Oct 26
New
Nov 2
First Quarter

Hourly Weather History & Observations

Time (CDT) Temp. Heat Index Dew Point Humidity Pressure Visibility Wind Dir Wind Speed Gust Speed Precip Events Conditions
12:15 AM 68.0 °F - 55.4 °F 64% 29.84 in 10.0 mi SSE 24.2 mph 34.5 mph N/A   Clear
12:35 AM 68.0 °F - 55.4 °F 64% 29.84 in 10.0 mi SSE 23.0 mph 31.1 mph N/A   Clear
1:15 AM 68.0 °F - 55.4 °F 64% 29.84 in 10.0 mi South 23.0 mph 32.2 mph N/A   Clear
1:35 AM 66.2 °F - 55.4 °F 68% 29.84 in 10.0 mi South 24.2 mph 29.9 mph N/A   Clear
1:55 AM 66.2 °F - 55.4 °F 68% 29.85 in 10.0 mi South 25.3 mph 33.4 mph N/A   Clear
2:35 AM 64.4 °F - 55.4 °F 73% 29.85 in 10.0 mi South 21.9 mph 29.9 mph N/A   Clear
2:55 AM 64.4 °F - 57.2 °F 77% 29.85 in 10.0 mi South 23.0 mph 28.8 mph N/A   Clear
3:15 AM 64.4 °F - 57.2 °F 77% 29.86 in 10.0 mi South 23.0 mph 28.8 mph N/A   Clear
3:35 AM 64.4 °F - 57.2 °F 77% 29.86 in 10.0 mi South 21.9 mph 31.1 mph N/A   Clear
3:55 AM 64.4 °F - 55.4 °F 73% 29.86 in 10.0 mi SSE 20.7 mph - N/A   Clear
4:15 AM 64.4 °F - 57.2 °F 77% 29.87 in 10.0 mi SSE 18.4 mph 25.3 mph N/A   Clear
4:55 AM 62.6 °F - 59.0 °F 88% 29.87 in 10.0 mi SSE 18.4 mph 25.3 mph N/A   Clear
5:15 AM 62.6 °F - 59.0 °F 88% 29.87 in 10.0 mi SSE 19.6 mph - N/A   Clear
5:35 AM 62.6 °F - 59.0 °F 88% 29.88 in 10.0 mi SSE 20.7 mph 25.3 mph N/A   Clear
5:55 AM 62.6 °F - 59.0 °F 88% 29.88 in 10.0 mi SSE 23.0 mph 28.8 mph N/A   Clear
6:15 AM 62.6 °F - 59.0 °F 88% 29.89 in 10.0 mi SSE 23.0 mph 27.6 mph N/A   Clear
6:35 AM 62.6 °F - 59.0 °F 88% 29.89 in 10.0 mi SSE 19.6 mph 26.5 mph N/A   Clear
6:55 AM 62.6 °F - 59.0 °F 88% 29.89 in 10.0 mi SSE 19.6 mph - N/A   Clear
7:35 AM 62.6 °F - 60.8 °F 94% 29.90 in 10.0 mi SSE 20.7 mph 26.5 mph N/A   Clear
7:55 AM 62.6 °F - 60.8 °F 94% 29.90 in 10.0 mi South 23.0 mph - N/A   Clear
8:15 AM 62.6 °F - 60.8 °F 94% 29.91 in 10.0 mi SSE 20.7 mph - N/A   Clear
8:35 AM 64.4 °F - 60.8 °F 88% 29.91 in 10.0 mi South 20.7 mph 27.6 mph N/A   Clear
8:55 AM 64.4 °F - 60.8 °F 88% 29.92 in 10.0 mi South 19.6 mph 27.6 mph N/A   Scattered Clouds
9:15 AM 66.2 °F - 60.8 °F 83% 29.94 in 10.0 mi South 20.7 mph 25.3 mph N/A   Mostly Cloudy
9:35 AM 66.2 °F - 60.8 °F 83% 29.94 in 10.0 mi South 18.4 mph 27.6 mph N/A   Overcast
9:55 AM 68.0 °F - 59.0 °F 73% 29.95 in 10.0 mi South 19.6 mph 28.8 mph N/A   Overcast
10:15 AM 68.0 °F - 60.8 °F 78% 29.96 in 10.0 mi South 17.3 mph 27.6 mph N/A   Overcast
10:35 AM 68.0 °F - 60.8 °F 78% 29.96 in 10.0 mi South 17.3 mph 25.3 mph N/A   Overcast
10:55 AM 68.0 °F - 60.8 °F 78% 29.96 in 10.0 mi South 19.6 mph 26.5 mph N/A   Overcast
11:15 AM 69.8 °F - 59.0 °F 68% 29.97 in 10.0 mi South 21.9 mph 26.5 mph N/A   Overcast
11:35 AM 69.8 °F - 59.0 °F 68% 29.97 in 10.0 mi South 19.6 mph 25.3 mph N/A   Overcast
11:55 AM 69.8 °F - 59.0 °F 68% 29.96 in 10.0 mi South 18.4 mph - N/A   Overcast
12:15 PM 73.4 °F - 59.0 °F 61% 29.96 in 10.0 mi South 19.6 mph 26.5 mph N/A   Mostly Cloudy
12:35 PM 73.4 °F - 59.0 °F 61% 29.96 in 10.0 mi South 21.9 mph 27.6 mph N/A   Scattered Clouds
12:55 PM 75.2 °F - 59.0 °F 57% 29.95 in 10.0 mi South 20.7 mph 29.9 mph N/A   Mostly Cloudy
1:15 PM 75.2 °F - 59.0 °F 57% 29.94 in 10.0 mi SSE 19.6 mph 27.6 mph N/A   Mostly Cloudy
1:35 PM 78.8 °F - 59.0 °F 51% 29.93 in 10.0 mi SSE 23.0 mph 27.6 mph N/A   Scattered Clouds
1:55 PM 78.8 °F - 59.0 °F 51% 29.93 in 10.0 mi South 24.2 mph 31.1 mph N/A   Clear
2:35 PM 78.8 °F - 59.0 °F 51% 29.90 in 10.0 mi SSE 24.2 mph 32.2 mph N/A   Scattered Clouds
3:15 PM 78.8 °F - 57.2 °F 47% 29.89 in 10.0 mi SSE 25.3 mph 31.1 mph N/A   Mostly Cloudy
3:35 PM 78.8 °F - 59.0 °F 51% 29.88 in 10.0 mi SE 20.7 mph 33.4 mph N/A   Scattered Clouds
4:15 PM 80.6 °F 80.8 °F 57.2 °F 45% 29.88 in 10.0 mi SSE 25.3 mph 34.5 mph N/A   Scattered Clouds
4:35 PM 78.8 °F - 59.0 °F 51% 29.88 in 10.0 mi SSE 24.2 mph 34.5 mph N/A   Scattered Clouds
4:55 PM 78.8 °F - 59.0 °F 51% 29.88 in 10.0 mi SSE 24.2 mph 33.4 mph N/A   Clear
5:15 PM 78.8 °F - 59.0 °F 51% 29.87 in 10.0 mi SSE 25.3 mph 31.1 mph N/A   Clear
5:35 PM 78.8 °F - 57.2 °F 47% 29.87 in 10.0 mi SSE 25.3 mph 29.9 mph N/A   Clear
6:15 PM 78.8 °F - 55.4 °F 44% 29.87 in 10.0 mi SSE 26.5 mph 32.2 mph N/A   Clear
6:35 PM 77.0 °F - 55.4 °F 47% 29.87 in 10.0 mi SSE 23.0 mph 31.1 mph N/A   Clear
6:55 PM 77.0 °F - 55.4 °F 47% 29.86 in 10.0 mi SSE 24.2 mph 32.2 mph N/A   Clear
7:15 PM 77.0 °F - 55.4 °F 47% 29.86 in 10.0 mi SE 20.7 mph 26.5 mph N/A   Clear
7:35 PM 75.2 °F - 55.4 °F 50% 29.86 in 10.0 mi SE 17.3 mph 24.2 mph N/A   Clear
7:55 PM 73.4 °F - 53.6 °F 50% 29.86 in 10.0 mi SSE 17.3 mph 24.2 mph N/A   Clear
8:15 PM 75.2 °F - 53.6 °F 47% 29.86 in 10.0 mi SSE 23.0 mph 26.5 mph N/A   Clear
8:55 PM 73.4 °F - 53.6 °F 50% 29.87 in 10.0 mi SSE 21.9 mph 32.2 mph N/A   Scattered Clouds
9:15 PM 73.4 °F - 53.6 °F 50% 29.87 in 10.0 mi SSE 19.6 mph 27.6 mph N/A   Scattered Clouds
9:35 PM 73.4 °F - 55.4 °F 53% 29.87 in 10.0 mi SSE 24.2 mph 32.2 mph N/A   Mostly Cloudy
9:55 PM 73.4 °F - 55.4 °F 53% 29.87 in 10.0 mi SSE 23.0 mph 29.9 mph N/A   Scattered Clouds
10:15 PM 71.6 °F - 57.2 °F 60% 29.87 in 10.0 mi SE 24.2 mph 31.1 mph N/A   Clear
10:35 PM 71.6 °F - 57.2 °F 60% 29.87 in 10.0 mi SSE 24.2 mph 31.1 mph N/A   Clear
10:55 PM 71.6 °F - 57.2 °F 60% 29.86 in 10.0 mi SE 24.2 mph 31.1 mph N/A   Clear
11:15 PM 71.6 °F - 57.2 °F 60% 29.86 in 10.0 mi SE 21.9 mph 28.8 mph N/A   Clear
11:35 PM 71.6 °F - 57.2 °F 60% 29.86 in 10.0 mi SE 27.6 mph 33.4 mph N/A   Clear
11:55 PM 71.6 °F - 57.2 °F 60% 29.85 in 10.0 mi SE 26.5 mph 32.2 mph N/A   Scattered Clouds